Ocean City (26N)
Ocean City, NJ
Field Elevation: 8
Lat: 39°15.81N  Long: 74°36.45W
CTAF/Unicom Freq: 122.7000
   
     For Weather-by-Phone, call (609) 398-0705
Weather Advisories
2019-11-13   09:42 Z
Altimeter 30.30" Hg
Wind 300° @ 13 KT
Gusts 16 KT
Visibility 10 SM
Ceiling CLR
Temperature -4° C (25° F)
Dewpoint -13° C (9° F)
Relative Humidity 51%
Density Altitude --
Condensation Altitude 4,500 feet
Wind Chill: -11° C (12° F)
Wind and Runways
Indicated Runway = 24
Headwind = 6 kt
Crosswind = 11 kt
History
 
 
 
More Info
All DigiWx sites map
Weather Radar
NOAA Forecast
 
Airport IQ 5010
(HMIEM) Shock Trauma Ctr
(PN44) Upper Gwynedd Heliport
 
about DigiWx
 
FAA Disclaimer: The data displayed is for advisory purposes only and is not to be used for flight planning or operations. For official data, please call (609) 398-0705 to hear the current automated AWOS voice message.
  METAR 26N 130942Z AUTO 30013G16KT VIS 10 SM CLR M04/M13 A3030